Time;durP1;ratioP1;P1;durP2;ratioP2;P2;SDS_P1;SDS_P2;PMS_P1;PMS_P2;Temp;Humidity;BMP_temperature;BMP_pressure;BME280_temperature;BME280_humidity;BME280_pressure;Samples;Min_cycle;Max_cycle;Signal;HPM_P1;HPM_P2
2022/01/04 00:00:28;;;;;;;3.63;1.30;;;12.60;88.50;;;13.02;58.85;97741.59;4939660;28;123742;-85
2022/01/04 00:02:55;;;;;;;1.50;1.17;;;12.50;88.50;;;13.03;58.80;97729.38;4949969;28;113579;-86
2022/01/04 00:05:22;;;;;;;5.93;1.40;;;12.60;88.70;;;13.04;58.84;97729.00;4955440;28;113040;-86
2022/01/04 00:07:49;;;;;;;2.97;1.60;;;12.60;88.80;;;13.09;59.14;97722.38;4951667;28;124754;-88
2022/01/04 00:10:22;;;;;;;4.97;1.40;;;12.60;89.10;;;13.10;59.02;97720.41;4983436;28;123884;-84
2022/01/04 00:15:36;;;;;;;1.37;1.17;;;12.60;89.20;;;13.10;59.09;97721.22;4953950;28;116165;-85
2022/01/04 00:18:02;;;;;;;3.40;1.50;;;12.60;89.20;;;13.09;59.12;97702.97;4958124;28;123895;-85
2022/01/04 00:20:49;;;;;;;1.63;1.20;;;12.60;89.30;;;13.09;59.26;97702.97;4951316;28;124283;-87
2022/01/04 00:23:55;;;;;;;2.73;1.30;;;12.60;89.20;;;13.08;59.50;97695.00;4953173;28;114244;-87
2022/01/04 00:26:41;;;;;;;1.57;1.20;;;12.60;89.30;;;13.07;59.12;97694.19;4945297;28;114320;-87
2022/01/04 00:29:26;;;;;;;1.73;1.07;;;12.60;89.20;;;13.09;59.14;97693.84;4944767;28;123701;-87
2022/01/04 00:32:11;;;;;;;1.23;1.13;;;12.60;89.30;;;13.09;59.48;97686.34;4950092;28;124193;-87
2022/01/04 00:34:41;;;;;;;1.30;1.20;;;12.60;89.40;;;13.10;59.47;97679.63;4955200;28;114260;-88
2022/01/04 00:37:08;;;;;;;2.67;1.23;;;12.60;89.50;;;13.12;59.42;97680.06;4970080;28;113998;-88
2022/01/04 00:39:55;;;;;;;3.37;1.40;;;12.60;89.50;;;13.13;59.57;97678.91;4951784;28;124604;-88
2022/01/04 00:42:22;;;;;;;1.53;1.13;;;12.70;89.70;;;13.14;59.64;97674.97;4950489;28;123823;-88
2022/01/04 00:45:27;;;;;;;1.57;1.00;;;12.70;89.80;;;13.16;59.42;97664.31;4954559;28;114257;-87
2022/01/04 00:50:59;;;;;;;1.43;1.10;;;12.70;89.70;;;13.17;59.31;97638.22;4950397;28;124422;-87
2022/01/04 00:53:26;;;;;;;1.33;1.23;;;12.70;89.70;;;13.20;59.41;97640.25;4949440;28;123668;-87
2022/01/04 00:55:54;;;;;;;2.03;1.20;;;12.70;89.90;;;13.22;59.48;97634.38;4953749;28;114381;-87
2022/01/04 00:58:39;;;;;;;3.33;1.50;;;12.70;89.90;;;13.24;59.54;97640.34;4957417;28;114058;-86
2022/01/04 01:01:05;;;;;;;1.60;1.30;;;12.70;89.90;;;13.23;59.46;97625.69;4959840;28;123091;-87
2022/01/04 01:03:33;;;;;;;2.33;1.00;;;12.70;90.00;;;13.25;59.44;97623.34;4957114;28;122802;-87
2022/01/04 01:06:37;;;;;;;1.50;1.10;;;12.70;90.00;;;13.21;59.46;97616.91;4956902;28;113737;-87
2022/01/04 01:09:28;;;;;;;1.30;1.10;;;12.70;90.00;;;13.22;59.60;97607.44;4952445;28;113393;-87
2022/01/04 01:11:54;;;;;;;1.27;1.10;;;12.70;90.00;;;13.22;59.61;97607.44;4954745;28;124425;-88
2022/01/04 01:15:00;;;;;;;1.73;1.20;;;12.70;90.00;;;13.21;59.73;97591.94;4952995;28;122816;-87
2022/01/04 01:17:27;;;;;;;1.80;1.20;;;12.80;90.10;;;13.20;59.77;97587.56;4939571;28;114896;-87
2022/01/04 01:20:14;;;;;;;2.03;1.10;;;12.70;90.00;;;13.23;59.82;97586.84;4956824;28;113121;-87
2022/01/04 01:22:42;;;;;;;1.93;1.17;;;12.80;90.10;;;13.24;59.83;97582.09;4957433;28;123850;-87
2022/01/04 01:25:12;;;;;;;3.50;1.40;;;12.80;90.10;;;13.25;59.61;97576.19;4968094;28;123689;-87
2022/01/04 01:28:18;;;;;;;1.53;1.10;;;12.80;90.10;;;13.28;59.45;97566.38;4957665;28;114405;-86
2022/01/04 01:30:45;;;;;;;1.20;1.00;;;12.80;90.10;;;13.30;59.66;97574.31;4945337;28;114279;-86
2022/01/04 01:33:12;;;;;;;1.40;1.10;;;12.80;90.20;;;13.34;59.90;97567.72;4950433;28;123884;-87
2022/01/04 01:36:36;;;;;;;1.63;1.10;;;12.90;90.20;;;13.37;59.80;97564.22;4961853;28;122436;-87
2022/01/04 01:39:22;;;;;;;1.40;1.20;;;12.80;90.20;;;13.38;59.78;97542.81;4943597;28;114188;-87
2022/01/04 01:42:09;;;;;;;2.90;1.30;;;12.90;90.20;;;13.38;59.69;97543.63;4975295;28;114263;-88
2022/01/04 01:44:36;;;;;;;3.63;1.20;;;12.90;90.20;;;13.40;59.69;97537.72;4951820;28;123876;-87
2022/01/04 01:47:04;;;;;;;1.57;1.10;;;12.90;90.20;;;13.41;59.95;97531.00;4961174;28;123684;-88
2022/01/04 01:49:50;;;;;;;2.27;1.30;;;12.90;90.30;;;13.44;59.62;97513.63;4954262;28;114304;-88
2022/01/04 01:52:18;;;;;;;2.03;1.30;;;12.90;90.30;;;13.44;59.80;97505.31;4952188;28;113959;-87
2022/01/04 01:54:45;;;;;;;1.33;0.97;;;12.90;90.30;;;13.45;59.93;97484.72;4945591;28;124706;-87
2022/01/04 01:57:12;;;;;;;1.53;1.10;;;12.90;90.30;;;13.47;59.86;97490.72;4940436;28;124407;-88
2022/01/04 01:59:58;;;;;;;1.53;1.30;;;12.90;90.40;;;13.47;59.60;97482.38;4952939;28;114271;-88
2022/01/04 02:02:25;;;;;;;1.30;1.20;;;12.90;90.40;;;13.45;59.97;97473.63;4949598;28;113995;-85
2022/01/04 02:04:51;;;;;;;1.57;1.20;;;12.90;90.40;;;13.44;60.06;97474.78;4949169;28;124299;-87
2022/01/04 02:07:20;;;;;;;1.40;1.00;;;12.90;90.40;;;13.44;60.14;97475.59;4962719;28;123438;-88
2022/01/04 02:10:09;;;;;;;1.70;1.27;;;12.90;90.40;;;13.43;59.92;97467.63;4957410;28;114338;-86
2022/01/04 02:12:46;;;;;;;1.20;1.10;;;12.90;90.40;;;13.42;60.08;97457.69;4980801;28;114231;-88
2022/01/04 02:15:33;;;;;;;1.80;1.43;;;12.90;90.50;;;13.39;59.95;97458.44;4956810;28;124019;-89
2022/01/04 02:18:04;;;;;;;2.50;1.20;;;12.90;90.50;;;13.39;60.03;97445.34;4930432;28;123094;-86
2022/01/04 02:20:31;;;;;;;1.50;1.20;;;12.90;90.50;;;13.39;60.02;97436.25;4938499;28;113140;-87
2022/01/04 02:22:59;;;;;;;1.30;1.20;;;12.90;90.50;;;13.40;60.11;97446.16;4966021;28;113932;-86
2022/01/04 02:26:05;;;;;;;2.80;1.23;;;12.90;90.50;;;13.39;60.10;97433.47;4959279;28;124320;-88
2022/01/04 02:28:51;;;;;;;2.10;1.60;;;12.90;90.50;;;13.38;59.81;97421.56;4944342;28;124399;-86
2022/01/04 02:31:18;;;;;;;2.93;1.43;;;12.90;90.50;;;13.38;60.01;97404.09;4958985;28;115877;-87
2022/01/04 02:34:23;;;;;;;2.37;1.63;;;12.90;90.50;;;13.38;60.12;97406.88;4955391;28;114929;-87
2022/01/04 02:37:09;;;;;;;1.83;1.27;;;12.90;90.60;;;13.35;60.14;97391.78;4941565;28;123260;-87
2022/01/04 02:39:56;;;;;;;1.70;1.30;;;12.80;90.50;;;13.36;60.15;97389.81;4955564;28;123538;-87
2022/01/04 02:42:27;;;;;;;1.43;1.33;;;12.80;90.50;;;13.37;60.18;97374.75;4946951;28;114441;-87
2022/01/04 02:44:54;;;;;;;1.70;1.43;;;12.80;90.50;;;13.37;60.21;97370.00;4958948;28;113935;-87
2022/01/04 02:47:40;;;;;;;1.47;1.17;;;12.80;90.50;;;13.40;60.09;97363.72;4963667;28;123169;-87
2022/01/04 02:50:37;;;;;;;1.83;1.23;;;12.90;90.60;;;13.41;60.08;97359.00;4957581;28;123473;-88
2022/01/04 02:53:23;;;;;;;1.53;1.40;;;12.90;90.50;;;13.42;59.92;97355.06;4956088;28;113920;-87
2022/01/04 02:56:10;;;;;;;1.43;1.30;;;12.90;90.50;;;13.44;59.91;97347.16;4956353;28;113880;-88
2022/01/04 02:59:34;;;;;;;1.57;1.23;;;12.90;90.50;;;13.42;59.77;97322.56;4941244;28;123949;-86
2022/01/04 03:02:01;;;;;;;2.40;1.50;;;12.90;90.50;;;13.44;59.80;97327.75;4943408;28;124194;-86
2022/01/04 03:04:28;;;;;;;2.60;1.70;;;12.90;90.50;;;13.45;60.05;97321.81;4941432;28;112254;-87
2022/01/04 03:07:14;;;;;;;1.60;1.50;;;12.90;90.50;;;13.49;59.84;97313.56;4955972;28;114623;-86
2022/01/04 03:09:43;;;;;;;1.93;1.20;;;12.90;90.50;;;13.51;59.55;97318.75;4960087;28;123767;-88
2022/01/04 03:12:11;;;;;;;2.80;1.70;;;13.00;90.50;;;13.54;59.66;97315.22;4961467;28;124236;-86
2022/01/04 03:14:38;;;;;;;1.93;1.30;;;12.90;90.40;;;13.54;59.44;97309.69;4957108;28;114393;-88
2022/01/04 03:17:05;;;;;;;1.97;1.47;;;12.90;90.40;;;13.54;59.39;97306.91;4956495;28;114461;-86
2022/01/04 03:20:09;;;;;;;1.93;1.50;;;13.00;90.40;;;13.54;59.52;97304.13;4973260;28;122303;-86
2022/01/04 03:22:38;;;;;;;1.60;1.30;;;12.90;90.30;;;13.53;59.29;97295.00;4957034;28;123213;-87
2022/01/04 03:25:23;;;;;;;1.57;1.47;;;12.90;90.30;;;13.55;59.31;97297.44;4956009;28;115277;-88
2022/01/04 03:27:50;;;;;;;2.13;1.80;;;13.00;90.30;;;13.53;59.26;97288.66;4952363;28;114943;-87
2022/01/04 03:30:17;;;;;;;1.63;1.50;;;12.90;90.30;;;13.51;59.26;97279.91;4955101;28;124777;-87
2022/01/04 03:32:43;;;;;;;2.60;1.60;;;12.90;90.30;;;13.50;59.42;97276.31;4954727;28;123947;-86
2022/01/04 03:35:10;;;;;;;1.87;1.57;;;12.90;90.30;;;13.48;59.42;97275.88;4952173;28;114105;-86
2022/01/04 03:37:39;;;;;;;3.70;1.40;;;12.90;90.20;;;13.45;59.27;97277.41;4954312;28;113913;-86
2022/01/04 03:40:06;;;;;;;2.40;1.67;;;12.90;90.20;;;13.44;59.36;97264.72;4951952;28;124225;-85
2022/01/04 03:42:33;;;;;;;1.97;1.43;;;12.90;90.20;;;13.46;59.24;97256.06;4986381;28;123463;-85
2022/01/04 03:45:18;;;;;;;3.07;1.30;;;12.90;90.20;;;13.44;59.42;97259.19;4961987;28;113416;-86
2022/01/04 03:47:46;;;;;;;3.00;1.40;;;12.90;90.20;;;13.43;59.55;97240.13;4956222;28;113970;-87
2022/01/04 03:50:14;;;;;;;2.47;2.20;;;12.90;90.30;;;13.43;59.73;97234.56;4950885;28;124064;-87
2022/01/04 03:52:41;;;;;;;2.03;1.30;;;12.90;90.40;;;13.42;59.60;97219.91;4950595;28;121913;-87
2022/01/04 03:55:47;;;;;;;4.33;1.57;;;12.90;90.30;;;13.43;59.52;97215.16;4952289;28;114109;-86
2022/01/04 03:59:10;;;;;;;2.50;1.40;;;12.90;90.30;;;13.40;59.60;97208.38;4960196;28;113969;-87
2022/01/04 04:01:37;;;;;;;1.43;1.27;;;12.90;90.30;;;13.38;59.78;97216.28;4952504;28;123155;-87
2022/01/04 04:04:05;;;;;;;1.37;1.27;;;12.90;90.30;;;13.40;59.89;97210.34;4951148;28;123685;-87
2022/01/04 04:06:31;;;;;;;1.77;1.50;;;12.90;90.30;;;13.41;59.78;97209.19;4955745;28;114535;-87
2022/01/04 04:08:59;;;;;;;1.63;1.10;;;12.90;90.40;;;13.40;59.63;97205.59;4954678;28;114384;-87
2022/01/04 04:11:44;;;;;;;1.70;1.47;;;12.90;90.40;;;13.42;59.86;97186.63;4951278;28;124233;-86
2022/01/04 04:14:11;;;;;;;1.10;1.00;;;12.90;90.40;;;13.42;60.15;97203.25;4949376;28;124211;-86
2022/01/04 04:17:36;;;;;;;1.53;1.30;;;13.00;90.50;;;13.37;59.92;97175.81;4957206;28;115629;-87
2022/01/04 04:20:39;;;;;;;1.50;1.20;;;12.90;90.60;;;13.34;60.41;97198.75;4949444;28;115180;-87
2022/01/04 04:23:08;;;;;;;1.30;1.20;;;12.90;90.60;;;13.34;60.27;97170.22;4952260;28;126716;-87
2022/01/04 04:25:37;;;;;;;1.70;1.20;;;12.90;90.70;;;13.33;60.34;97161.13;4955876;28;125824;-87
2022/01/04 04:28:04;;;;;;;2.73;1.37;;;12.90;90.80;;;13.34;60.73;97154.38;4938211;28;114412;-87
2022/01/04 04:30:31;;;;;;;2.30;1.30;;;12.90;90.80;;;13.35;60.78;97150.44;4985822;28;115305;-87
2022/01/04 04:32:59;;;;;;;5.13;1.20;;;12.90;90.80;;;13.36;60.65;97156.78;4955495;28;125506;-86
2022/01/04 04:36:26;;;;;;;1.20;1.07;;;12.90;91.00;;;13.35;61.07;97141.31;4951095;28;123768;-87
2022/01/04 04:38:54;;;;;;;2.50;1.30;;;12.90;91.00;;;13.33;61.14;97152.78;4952936;28;114369;-87
2022/01/04 04:41:20;;;;;;;1.60;1.30;;;12.90;91.10;;;13.31;61.36;97138.47;4951557;28;113003;-85
2022/01/04 04:43:49;;;;;;;1.50;1.17;;;12.90;91.20;;;13.32;61.60;97139.28;4949432;28;124137;-87
2022/01/04 04:46:15;;;;;;;1.93;1.30;;;12.90;91.30;;;13.33;61.84;97135.34;4958897;28;123814;-87
2022/01/04 04:49:40;;;;;;;1.50;1.40;;;12.90;91.40;;;13.30;61.66;97130.53;4952911;28;113273;-87
2022/01/04 04:52:07;;;;;;;1.63;1.37;;;12.90;91.40;;;13.25;62.06;97113.00;4944398;28;115035;-86
2022/01/04 04:54:54;;;;;;;2.07;1.27;;;12.90;91.80;;;13.26;61.99;97122.94;4950348;28;124076;-87
2022/01/04 04:57:23;;;;;;;2.43;1.20;;;12.80;91.60;;;13.25;62.34;97113.00;4958053;28;123649;-86
2022/01/04 05:00:10;;;;;;;1.10;1.00;;;12.80;91.60;;;13.25;62.41;97107.47;4956587;28;114452;-87
2022/01/04 05:02:37;;;;;;;2.67;1.23;;;12.80;91.70;;;13.25;62.53;97104.69;4952235;28;112943;-87
2022/01/04 05:05:05;;;;;;;1.90;1.40;;;12.80;91.80;;;13.26;62.59;97105.50;4940467;28;124180;-88
2022/01/04 05:07:34;;;;;;;1.67;1.20;;;12.80;91.90;;;13.25;62.84;97090.81;4951156;28;123936;-88
2022/01/04 05:10:19;;;;;;;1.70;1.27;;;13.00;92.00;;;13.25;62.49;97096.38;4935401;28;114393;-88
2022/01/04 05:12:47;;;;;;;2.80;1.40;;;12.80;91.90;;;13.28;62.79;97094.84;4951798;28;114307;-87
2022/01/04 05:15:15;;;;;;;1.10;1.00;;;12.80;92.10;;;13.30;63.11;97083.38;4951583;28;124557;-88
2022/01/04 05:17:42;;;;;;;1.33;1.23;;;12.80;92.20;;;13.28;63.02;97094.84;4980632;28;123943;-88
2022/01/04 05:20:09;;;;;;;1.53;1.30;;;12.80;92.20;;;13.28;63.21;97082.97;4950415;28;114355;-86
2022/01/04 05:22:36;;;;;;;1.60;1.20;;;12.80;92.20;;;13.26;63.16;97097.97;4958387;28;113830;-87
2022/01/04 05:25:04;;;;;;;1.77;1.20;;;12.80;92.30;;;13.25;63.37;97093.59;4948805;28;123901;-88
2022/01/04 05:27:31;;;;;;;3.33;1.13;;;12.80;92.40;;;13.26;63.67;97069.47;4964576;28;123201;-88
2022/01/04 05:30:18;;;;;;;1.90;1.13;;;12.90;92.60;;;13.24;63.40;97077.31;4941990;28;113580;-87
2022/01/04 05:33:23;;;;;;;1.40;1.17;;;12.80;92.60;;;13.23;63.67;97070.19;4931076;28;113963;-87
2022/01/04 05:35:49;;;;;;;1.27;1.17;;;12.80;92.60;;;13.24;64.28;97064.28;4948277;28;123483;-86
2022/01/04 05:38:17;;;;;;;1.97;1.37;;;12.90;92.90;;;13.20;64.07;97060.63;4949492;28;125412;-88
2022/01/04 05:41:04;;;;;;;2.10;1.60;;;12.70;92.90;;;13.21;64.31;97028.13;4939479;28;113214;-88
2022/01/04 05:43:50;;;;;;;1.87;1.40;;;12.70;93.00;;;13.18;64.56;97023.34;4962662;28;113302;-87
2022/01/04 05:46:35;;;;;;;1.93;1.50;;;12.70;93.00;;;13.15;64.59;97024.88;4941556;28;124377;-88
2022/01/04 05:49:04;;;;;;;1.23;1.13;;;12.70;93.10;;;13.15;64.82;97022.13;4948318;28;123865;-89
2022/01/04 05:51:31;;;;;;;2.20;1.30;;;12.70;93.20;;;13.16;65.00;97009.03;4957716;28;114428;-87
2022/01/04 05:53:58;;;;;;;1.40;1.30;;;12.70;93.30;;;13.15;64.86;97002.72;4954772;28;114095;-86
2022/01/04 05:56:26;;;;;;;3.10;1.47;;;12.70;93.40;;;13.13;65.10;97009.81;4963476;28;123327;-86
2022/01/04 05:58:53;;;;;;;1.13;0.93;;;12.70;93.50;;;13.10;65.32;97000.25;4953738;28;124687;-87
2022/01/04 06:01:21;;;;;;;1.40;1.30;;;12.60;93.50;;;13.11;65.44;96985.25;4966717;28;115365;-87
2022/01/04 06:03:50;;;;;;;1.47;1.13;;;12.60;93.70;;;13.11;65.49;96987.19;4939896;28;114438;-86
2022/01/04 06:06:18;;;;;;;1.30;1.10;;;12.60;93.80;;;13.12;65.50;96995.13;4953782;28;124401;-88
2022/01/04 06:08:47;;;;;;;1.40;1.30;;;12.60;93.80;;;13.13;65.81;96993.16;4962644;28;124026;-87
2022/01/04 06:11:43;;;;;;;2.60;1.50;;;12.60;93.90;;;13.14;66.24;96992.00;4962277;28;114263;-87
2022/01/04 06:16:57;;;;;;;1.37;1.00;;;12.60;94.10;;;13.13;66.45;96982.88;4935665;28;124275;-88
2022/01/04 06:19:24;;;;;;;1.33;1.20;;;12.60;94.20;;;13.13;65.97;96970.97;4955510;28;124199;-87
2022/01/04 06:21:50;;;;;;;1.73;1.40;;;12.60;94.20;;;13.15;66.00;96963.09;4952027;28;113486;-87
2022/01/04 06:24:18;;;;;;;1.77;1.20;;;12.70;94.20;;;13.16;66.33;96962.69;4956817;28;113148;-88
2022/01/04 06:26:44;;;;;;;1.27;1.17;;;12.70;94.20;;;13.18;66.07;96946.50;4948275;28;124234;-87
2022/01/04 06:29:11;;;;;;;1.37;1.10;;;12.80;94.40;;;13.19;66.40;96948.13;4959215;28;123875;-86
2022/01/04 06:31:40;;;;;;;1.83;1.30;;;12.70;94.30;;;13.22;66.28;96952.13;4940426;28;114273;-86
2022/01/04 06:34:07;;;;;;;1.30;1.10;;;12.80;94.40;;;13.22;66.10;96950.13;4947751;28;114155;-88
2022/01/04 06:36:34;;;;;;;2.40;1.37;;;12.70;94.30;;;13.26;66.02;96944.66;4945993;28;123771;-88
2022/01/04 06:39:20;;;;;;;1.47;1.13;;;12.80;94.40;;;13.29;65.97;96935.56;4939115;28;123928;-88
2022/01/04 06:41:47;;;;;;;1.23;1.07;;;12.80;94.40;;;13.30;66.31;96941.91;4945339;28;114096;-87
2022/01/04 06:44:14;;;;;;;2.70;1.67;;;12.80;94.40;;;13.32;66.25;96937.59;4947170;28;113684;-88
2022/01/04 06:46:45;;;;;;;1.67;1.20;;;12.80;94.40;;;13.34;65.96;96938.03;4954635;28;124060;-88
2022/01/04 06:49:16;;;;;;;1.20;1.10;;;12.90;94.40;;;13.38;65.86;96932.50;4942627;28;124460;-87
2022/01/04 06:51:46;;;;;;;1.30;1.20;;;12.90;94.40;;;13.42;66.00;96927.81;4942130;28;115014;-87
2022/01/04 06:54:17;;;;;;;1.33;1.23;;;12.90;94.50;;;13.43;65.88;96934.97;4949290;28;115150;-88
2022/01/04 06:56:48;;;;;;;1.30;1.10;;;12.90;94.50;;;13.42;66.22;96927.81;4963968;28;124943;-88
2022/01/04 06:59:16;;;;;;;1.90;1.20;;;12.90;94.50;;;13.44;65.82;96936.56;4947556;28;123924;-89
2022/01/04 07:01:43;;;;;;;1.37;1.27;;;12.80;94.50;;;13.44;66.11;96926.28;4943700;28;113501;-88
2022/01/04 07:04:10;;;;;;;2.03;1.23;;;12.90;94.50;;;13.47;66.07;96924.72;4946467;28;114026;-91
2022/01/04 07:06:58;;;;;;;1.67;1.30;;;12.90;94.50;;;13.47;66.01;96922.75;4959409;28;122422;-91
2022/01/04 07:09:24;;;;;;;1.40;1.30;;;13.00;94.60;;;13.48;66.13;96920.75;4949562;28;124276;-88
2022/01/04 07:11:54;;;;;;;1.60;1.10;;;12.90;94.60;;;13.51;66.02;96911.69;4952543;28;113337;-88
2022/01/04 07:14:22;;;;;;;2.47;1.30;;;13.00;94.60;;;13.51;66.11;96914.44;4952754;28;113281;-89
2022/01/04 07:16:50;;;;;;;3.30;1.10;;;13.00;94.60;;;13.52;66.10;96904.97;4951674;28;123533;-88
2022/01/04 07:19:17;;;;;;;1.73;1.40;;;13.00;94.60;;;13.53;66.09;96901.00;4951071;28;124208;-88
2022/01/04 07:21:44;;;;;;;1.53;1.37;;;13.00;94.60;;;13.52;66.19;96893.88;4956541;28;114351;-87
2022/01/04 07:24:10;;;;;;;2.60;1.60;;;13.00;94.90;;;13.51;66.17;96895.03;4957251;28;113774;-88
2022/01/04 07:26:37;;;;;;;1.50;1.20;;;13.00;94.60;;;13.52;66.31;96899.41;4943344;28;124755;-87
2022/01/04 07:29:06;;;;;;;1.40;1.30;;;13.00;94.60;;;13.54;66.23;96897.06;4955152;28;123660;-87
2022/01/04 07:31:33;;;;;;;1.53;1.00;;;13.00;94.70;;;13.54;66.08;96891.53;4952531;28;114088;-88
2022/01/04 07:33:59;;;;;;;1.20;1.10;;;13.20;94.80;;;13.57;66.15;96889.97;4960384;28;114122;-88
2022/01/04 07:36:29;;;;;;;1.30;1.20;;;13.00;94.70;;;13.57;65.95;96893.53;4953683;28;125246;-86
2022/01/04 07:39:15;;;;;;;1.63;1.20;;;13.10;94.80;;;13.58;66.20;96886.78;4957151;28;123925;-88
2022/01/04 07:41:41;;;;;;;16.93;1.43;;;13.10;94.80;;;13.59;66.35;96871.72;4939785;28;115409;-89
2022/01/04 07:44:08;;;;;;;1.17;1.07;;;13.00;94.80;;;13.61;66.32;96871.38;4956094;28;114942;-89
2022/01/04 07:46:34;;;;;;;1.27;1.07;;;13.10;94.80;;;13.62;66.27;96876.53;4952595;28;124154;-85
2022/01/04 07:49:01;;;;;;;1.87;1.10;;;13.10;94.90;;;13.63;66.53;96869.00;4958442;28;124057;-85
2022/01/04 07:51:28;;;;;;;1.13;1.00;;;13.10;94.90;;;13.62;66.70;96868.22;4937865;28;114441;-88
2022/01/04 07:53:55;;;;;;;2.93;1.33;;;13.10;95.00;;;13.63;66.76;96857.91;4945245;28;114165;-88
2022/01/04 07:56:21;;;;;;;1.80;1.17;;;13.10;95.10;;;13.64;66.70;96851.19;4937737;28;124400;-86
2022/01/04 07:58:48;;;;;;;1.17;1.03;;;13.10;95.10;;;13.64;66.74;96863.06;4931742;28;123735;-87
2022/01/04 08:01:14;;;;;;;1.73;1.27;;;13.10;95.20;;;13.66;66.72;96832.97;4947465;28;114925;-87
2022/01/04 08:03:41;;;;;;;1.60;1.17;;;13.10;95.30;;;13.69;66.84;96832.19;4938338;28;114728;-86
2022/01/04 08:06:07;;;;;;;2.20;1.17;;;13.20;95.30;;;13.75;67.07;96812.44;4935823;28;124215;-89
2022/01/04 08:08:35;;;;;;;2.63;1.40;;;13.20;95.40;;;13.78;66.34;96815.25;4944797;28;123837;-88
2022/01/04 08:11:02;;;;;;;1.67;1.20;;;13.30;95.40;;;13.82;66.80;96818.06;4942385;28;113523;-87
2022/01/04 08:13:30;;;;;;;1.10;1.00;;;13.30;95.30;;;13.85;66.63;96825.63;4945606;28;114024;-88
2022/01/04 08:15:56;;;;;;;1.13;1.03;;;13.30;95.30;;;13.86;66.68;96833.56;4943415;28;124363;-88
2022/01/04 08:18:23;;;;;;;1.63;1.30;;;13.30;95.30;;;13.89;66.63;96837.56;4940725;28;123872;-88
2022/01/04 08:20:53;;;;;;;1.43;1.20;;;13.40;95.30;;;13.91;66.53;96824.06;4937409;28;115351;-85
2022/01/04 08:23:22;;;;;;;2.13;1.30;;;13.40;95.20;;;13.95;66.49;96808.25;4937301;28;113765;-87
2022/01/04 08:25:49;;;;;;;2.97;1.30;;;13.40;95.20;;;13.99;66.39;96811.06;4940039;28;124296;-89
2022/01/04 08:28:15;;;;;;;1.47;1.17;;;13.40;95.20;;;14.00;66.45;96807.13;4933863;28;123760;-89
2022/01/04 08:30:43;;;;;;;1.77;1.10;;;13.50;95.20;;;14.01;66.41;96806.72;4931794;28;115297;-86
2022/01/04 08:33:10;;;;;;;1.60;1.30;;;13.50;95.10;;;14.04;66.54;96822.59;4947675;28;115550;-87
2022/01/04 08:35:38;;;;;;;1.70;1.13;;;13.50;95.20;;;14.07;66.46;96819.06;4944180;28;124232;-85
2022/01/04 08:38:06;;;;;;;1.73;1.20;;;13.50;95.20;;;14.09;66.46;96821.47;4955380;28;124986;-87
2022/01/04 08:40:34;;;;;;;2.03;1.13;;;13.60;95.20;;;14.11;66.41;96813.56;4942752;28;114179;-87
2022/01/04 08:43:01;;;;;;;1.97;1.10;;;13.60;95.20;;;14.11;66.34;96831.00;4972784;28;113865;-88
2022/01/04 08:45:27;;;;;;;1.30;1.20;;;13.60;95.20;;;14.10;66.23;96796.09;4934626;28;124535;-87
2022/01/04 08:47:54;;;;;;;1.30;1.20;;;13.60;95.10;;;14.12;66.30;96779.03;4935071;28;124419;-85
2022/01/04 08:50:21;;;;;;;1.87;1.27;;;13.60;95.10;;;14.12;66.39;96788.16;4933071;28;114373;-86
2022/01/04 08:52:51;;;;;;;1.80;1.40;;;13.70;95.10;;;14.18;66.02;96785.03;4940078;28;114207;-86
2022/01/04 08:55:18;;;;;;;1.83;1.20;;;13.70;95.00;;;14.20;66.02;96782.66;4946192;28;125701;-86
2022/01/04 08:57:44;;;;;;;2.20;1.37;;;13.70;94.90;;;14.22;65.89;96774.75;4966200;28;123018;-86
2022/01/04 09:00:13;;;;;;;1.40;1.10;;;13.80;94.90;;;14.22;65.90;96785.84;4946555;28;114281;-85
2022/01/04 09:02:40;;;;;;;2.30;1.00;;;13.80;94.80;;;14.24;65.60;96789.03;4947138;28;113822;-84
2022/01/04 09:05:07;;;;;;;2.20;1.10;;;13.80;94.70;;;14.26;65.63;96783.88;4949562;28;124073;-87
2022/01/04 09:07:34;;;;;;;1.50;1.30;;;13.80;94.70;;;14.29;65.47;96786.72;4943807;28;123881;-88
2022/01/04 09:10:00;;;;;;;2.50;1.10;;;13.80;94.60;;;14.32;65.30;96790.69;4948897;28;113668;-87
2022/01/04 09:12:42;;;;;;;1.30;1.10;;;13.90;94.60;;;14.35;65.14;96778.81;4958682;28;114071;-86
2022/01/04 09:15:32;;;;;;;1.60;1.00;;;13.90;94.50;;;14.36;65.06;96780.38;4951407;28;124225;-87
2022/01/04 09:20:48;;;;;;;1.40;1.30;;;13.90;94.40;;;14.41;64.76;96777.25;4940732;28;115732;-85
2022/01/04 09:23:20;;;;;;;2.07;1.30;;;14.00;94.40;;;14.43;64.79;96786.00;4981887;28;114764;-86
2022/01/04 09:25:49;;;;;;;2.93;1.43;;;14.00;94.30;;;14.43;64.40;96779.66;4949493;28;124140;-87
2022/01/04 09:28:16;;;;;;;2.30;1.20;;;14.00;94.20;;;14.42;64.41;96772.50;4953695;28;122749;-87
2022/01/04 09:30:46;;;;;;;1.40;1.10;;;14.00;94.10;;;14.44;64.59;96754.25;4951967;28;114446;-88
2022/01/04 09:33:13;;;;;;;2.67;1.20;;;14.00;94.10;;;14.46;64.58;96767.75;4931928;28;114400;-86
2022/01/04 09:35:41;;;;;;;4.00;1.30;;;14.00;94.20;;;14.46;64.58;96756.66;4933948;28;124123;-87
2022/01/04 09:38:07;;;;;;;2.00;1.50;;;14.00;94.20;;;14.43;64.78;96746.31;4937298;28;124184;-85
2022/01/04 09:40:36;;;;;;;3.83;1.50;;;14.00;94.20;;;14.44;64.82;96753.44;4942216;28;113932;-86
2022/01/04 09:43:05;;;;;;;1.87;1.40;;;14.10;94.20;;;14.42;64.74;96750.25;4942902;28;114077;-87
2022/01/04 09:45:32;;;;;;;2.00;1.40;;;14.00;94.20;;;14.43;64.82;96751.88;4939907;28;125352;-87
2022/01/04 09:47:59;;;;;;;2.00;1.50;;;14.00;94.20;;;14.42;64.88;96761.38;4939703;28;123747;-87
2022/01/04 09:50:26;;;;;;;1.53;1.10;;;14.00;94.20;;;14.42;64.79;96775.25;4933162;28;113967;-87
2022/01/04 09:52:56;;;;;;;7.63;1.50;;;14.00;94.30;;;14.40;65.02;96763.72;4946826;28;113557;-87
2022/01/04 09:55:22;;;;;;;1.63;1.13;;;14.00;94.50;;;14.38;65.40;96757.78;4933077;28;124324;-88
2022/01/04 09:57:49;;;;;;;2.40;1.40;;;14.00;94.50;;;14.37;65.33;96759.75;4940931;28;124275;-86
2022/01/04 10:00:18;;;;;;;1.57;1.40;;;13.90;94.50;;;14.36;65.21;96756.19;4944680;28;114301;-87
2022/01/04 10:02:50;;;;;;;2.70;1.10;;;13.90;94.60;;;14.33;65.17;96743.06;4942860;28;113974;-85
2022/01/04 10:05:23;;;;;;;1.87;1.10;;;13.90;94.50;;;14.34;65.49;96763.31;4948536;28;124153;-86
2022/01/04 10:08:00;;;;;;;2.40;1.37;;;13.90;94.60;;;14.34;65.48;96752.97;4936314;28;124083;-88
2022/01/04 10:10:28;;;;;;;2.20;1.30;;;13.90;94.70;;;14.33;65.38;96753.38;4946400;28;115610;-87
2022/01/04 10:13:04;;;;;;;1.70;1.57;;;13.90;94.60;;;14.34;65.51;96741.09;4945305;28;115032;-86
2022/01/04 10:15:37;;;;;;;2.80;1.30;;;13.90;94.60;;;14.33;65.46;96754.19;4950687;28;124192;-87
2022/01/04 10:18:23;;;;;;;2.93;1.70;;;13.90;94.70;;;14.34;65.41;96738.31;4948869;28;124286;-88
2022/01/04 10:21:12;;;;;;;1.63;1.23;;;13.90;94.60;;;14.32;65.44;96740.69;4939491;28;114346;-86
2022/01/04 10:23:54;;;;;;;1.70;1.20;;;13.90;94.80;;;14.32;65.72;96729.59;4940625;28;114215;-84
2022/01/04 10:26:37;;;;;;;1.90;1.30;;;13.90;94.70;;;14.31;65.70;96722.41;4948362;28;124225;-87
2022/01/04 10:29:21;;;;;;;3.10;1.50;;;13.90;94.70;;;14.29;65.56;96724.78;4942498;28;123826;-87
2022/01/04 10:31:47;;;;;;;1.77;1.40;;;13.90;94.60;;;14.29;65.29;96741.44;4970762;28;114118;-87
2022/01/04 10:34:14;;;;;;;1.83;1.40;;;13.90;94.60;;;14.31;65.28;96700.19;4946649;28;114100;-87
2022/01/04 10:36:40;;;;;;;4.50;1.63;;;13.90;94.50;;;14.35;65.08;96693.47;4975543;28;124342;-86
2022/01/04 10:39:09;;;;;;;1.47;1.37;;;13.90;94.50;;;14.37;64.77;96690.28;4947222;28;123757;-87
2022/01/04 10:41:36;;;;;;;2.47;1.33;;;13.90;94.40;;;14.39;64.82;96696.28;4946225;28;114283;-87
2022/01/04 10:44:10;;;;;;;2.30;1.50;;;13.90;94.30;;;14.41;64.76;96693.91;4946135;28;114070;-87
2022/01/04 10:46:42;;;;;;;3.03;1.37;;;14.00;94.30;;;14.42;64.75;96697.47;4943042;28;124788;-88
2022/01/04 10:49:22;;;;;;;1.70;1.40;;;14.00;94.30;;;14.45;64.59;96711.38;4946908;28;124363;-86
2022/01/04 10:52:16;;;;;;;1.63;1.40;;;14.00;94.30;;;14.46;64.56;96707.44;4948614;28;114109;-87